createdAt,value
2022-09-26T00:01:35.870Z,13.16
2022-09-26T00:04:30.386Z,13.17
2022-09-26T00:07:18.331Z,13.20
2022-09-26T00:10:04.104Z,13.19
2022-09-26T00:12:49.372Z,13.13
2022-09-26T00:15:34.884Z,13.12
2022-09-26T00:18:20.218Z,13.08
2022-09-26T00:21:07.329Z,13.05
2022-09-26T00:23:54.432Z,13.00
2022-09-26T00:26:40.281Z,12.94
2022-09-26T00:29:25.845Z,12.89
2022-09-26T00:32:11.541Z,12.89
2022-09-26T00:34:57.854Z,12.85
2022-09-26T00:37:43.640Z,12.83
2022-09-26T00:40:30.584Z,12.80
2022-09-26T00:43:47.110Z,12.76
2022-09-26T00:46:40.911Z,12.70
2022-09-26T00:49:32.880Z,12.66
2022-09-26T00:52:43.300Z,12.61
2022-09-26T00:55:35.217Z,12.65
2022-09-26T00:58:28.199Z,12.67
2022-09-26T01:01:14.791Z,12.65
2022-09-26T01:04:02.843Z,12.56
2022-09-26T01:06:50.028Z,12.52
2022-09-26T01:09:37.385Z,12.45
2022-09-26T01:12:23.483Z,12.39
2022-09-26T01:15:09.863Z,12.34
2022-09-26T01:17:56.103Z,12.33
2022-09-26T01:20:44.585Z,12.31
2022-09-26T01:24:05.472Z,12.31
2022-09-26T01:27:17.806Z,12.29
2022-09-26T01:30:26.572Z,12.30
2022-09-26T01:33:24.703Z,12.30
2022-09-26T01:36:49.833Z,12.34
2022-09-26T01:40:26.030Z,12.30
2022-09-26T01:43:33.850Z,12.24
2022-09-26T01:46:50.595Z,12.17
2022-09-26T01:49:46.486Z,12.08
2022-09-26T01:52:48.099Z,12.01
2022-09-26T01:55:48.691Z,11.96
2022-09-26T01:58:41.801Z,11.91
2022-09-26T02:01:31.444Z,11.87
2022-09-26T02:04:30.994Z,11.82
2022-09-26T02:07:21.644Z,11.80
2022-09-26T02:10:16.961Z,11.74
2022-09-26T02:13:15.264Z,11.67
2022-09-26T02:16:11.885Z,11.68
2022-09-26T02:19:06.633Z,11.63
2022-09-26T02:21:52.946Z,11.59
2022-09-26T02:24:38.390Z,11.52
2022-09-26T02:27:25.717Z,11.57
2022-09-26T02:30:12.341Z,11.59
2022-09-26T02:32:57.617Z,11.58
2022-09-26T02:35:55.644Z,11.58
2022-09-26T02:38:43.239Z,11.58
2022-09-26T02:42:24.662Z,11.59
2022-09-26T02:45:26.006Z,11.58
2022-09-26T02:48:36.894Z,11.53
2022-09-26T02:51:54.497Z,11.50
2022-09-26T02:55:07.547Z,11.47
2022-09-26T02:58:04.181Z,11.44
2022-09-26T03:00:57.418Z,11.43
2022-09-26T03:04:00.009Z,11.41
2022-09-26T03:06:49.395Z,11.41
2022-09-26T03:09:35.200Z,11.38
2022-09-26T03:12:23.342Z,11.37
2022-09-26T03:15:09.846Z,11.36
2022-09-26T03:17:58.501Z,11.33
2022-09-26T03:20:44.797Z,11.28
2022-09-26T03:23:30.518Z,11.25
2022-09-26T03:26:25.889Z,11.23
2022-09-26T03:29:15.253Z,11.20
2022-09-26T03:32:01.285Z,11.24
2022-09-26T03:34:47.125Z,11.25
2022-09-26T03:37:35.148Z,11.21
2022-09-26T03:40:20.431Z,11.17
2022-09-26T03:43:32.132Z,11.12
2022-09-26T03:46:18.325Z,11.11
2022-09-26T03:49:04.403Z,11.07
2022-09-26T03:51:49.945Z,11.02
2022-09-26T03:54:35.786Z,11.00
2022-09-26T03:57:21.063Z,10.96
2022-09-26T04:00:15.459Z,10.88
2022-09-26T04:03:05.541Z,10.83
2022-09-26T04:05:57.729Z,10.87
2022-09-26T04:08:43.163Z,10.86
2022-09-26T04:11:30.334Z,10.83
2022-09-26T04:14:17.586Z,10.83
2022-09-26T04:17:06.997Z,10.84
2022-09-26T04:19:56.652Z,10.76
2022-09-26T04:22:42.676Z,10.68
2022-09-26T04:25:28.033Z,10.54
2022-09-26T04:28:14.089Z,10.41
2022-09-26T04:31:00.810Z,10.33
2022-09-26T04:33:46.133Z,10.25
2022-09-26T04:36:32.745Z,10.21
2022-09-26T04:39:19.349Z,10.13
2022-09-26T04:42:06.055Z,10.11
2022-09-26T04:44:51.601Z,10.07
2022-09-26T04:47:36.872Z,10.01
2022-09-26T04:50:41.085Z,9.96
2022-09-26T04:53:29.557Z,9.91
2022-09-26T04:56:30.169Z,9.92
2022-09-26T04:59:15.747Z,9.86
2022-09-26T05:02:12.659Z,9.79
2022-09-26T05:05:00.332Z,9.72
2022-09-26T05:07:46.496Z,9.67
2022-09-26T05:10:32.771Z,9.64
2022-09-26T05:13:23.063Z,9.62
2022-09-26T05:16:11.377Z,9.56
2022-09-26T05:18:58.641Z,9.49
2022-09-26T05:21:46.437Z,9.42
2022-09-26T05:24:50.351Z,9.40
2022-09-26T05:27:36.608Z,9.33
2022-09-26T05:30:22.053Z,9.29
2022-09-26T05:33:07.898Z,9.33
2022-09-26T05:35:54.976Z,9.36
2022-09-26T05:38:40.812Z,9.48
2022-09-26T05:41:31.732Z,9.56
2022-09-26T05:44:17.376Z,9.63
2022-09-26T05:47:02.935Z,9.65
2022-09-26T05:49:48.982Z,9.70
2022-09-26T05:52:38.536Z,9.74
2022-09-26T05:55:26.210Z,9.77
2022-09-26T05:58:24.077Z,9.76
2022-09-26T06:01:28.531Z,9.74
2022-09-26T06:04:24.118Z,9.74
2022-09-26T06:07:28.916Z,9.71
2022-09-26T06:10:15.245Z,9.71
2022-09-26T06:13:15.382Z,9.70
2022-09-26T06:16:14.131Z,9.67
2022-09-26T06:19:01.070Z,9.59
2022-09-26T06:21:46.997Z,9.52
2022-09-26T06:24:35.532Z,9.43
2022-09-26T06:27:28.685Z,9.39
2022-09-26T06:30:14.797Z,9.34
2022-09-26T06:33:00.326Z,9.31
2022-09-26T06:36:23.196Z,9.31
2022-09-26T06:39:09.689Z,9.32
2022-09-26T06:41:56.011Z,9.34
2022-09-26T06:45:01.446Z,9.41
2022-09-26T06:47:56.266Z,9.51
2022-09-26T06:51:04.706Z,9.57
2022-09-26T06:53:50.083Z,9.55
2022-09-26T06:56:39.327Z,9.54
2022-09-26T06:59:25.140Z,9.54
2022-09-26T07:02:37.064Z,9.59
2022-09-26T07:05:38.027Z,9.69
2022-09-26T07:08:43.319Z,9.78
2022-09-26T07:11:45.979Z,9.83
2022-09-26T07:14:37.991Z,9.84
2022-09-26T07:17:36.799Z,9.79
2022-09-26T07:20:32.241Z,9.78
2022-09-26T07:23:45.793Z,9.83
2022-09-26T07:26:31.842Z,9.85
2022-09-26T07:29:18.256Z,9.85
2022-09-26T07:32:04.771Z,9.84
2022-09-26T07:35:03.299Z,9.83
2022-09-26T07:37:53.003Z,9.78
2022-09-26T07:40:39.581Z,9.75
2022-09-26T07:43:50.286Z,9.78
2022-09-26T07:46:54.414Z,9.88
2022-09-26T07:49:59.595Z,9.93
2022-09-26T07:53:20.559Z,9.91
2022-09-26T07:56:35.305Z,9.95
2022-09-26T07:59:37.950Z,10.03
2022-09-26T08:02:36.167Z,10.07
2022-09-26T08:05:25.026Z,10.13
2022-09-26T08:08:11.577Z,10.18
2022-09-26T08:11:18.633Z,10.25
2022-09-26T08:14:17.631Z,10.31
2022-09-26T08:17:15.310Z,10.32
2022-09-26T08:20:01.893Z,10.33
2022-09-26T08:22:47.819Z,10.36
2022-09-26T08:25:35.791Z,10.38
2022-09-26T08:28:39.247Z,10.40
2022-09-26T08:31:26.352Z,10.43
2022-09-26T08:34:12.057Z,10.45
2022-09-26T08:36:58.744Z,10.45
2022-09-26T08:40:11.096Z,10.54
2022-09-26T08:43:50.242Z,10.59
2022-09-26T08:47:41.028Z,10.58
2022-09-26T08:50:35.206Z,10.61
2022-09-26T08:53:25.045Z,10.64
2022-09-26T08:56:21.610Z,10.77
2022-09-26T08:59:14.238Z,10.82
2022-09-26T09:02:02.677Z,10.89
2022-09-26T09:05:11.669Z,11.02
2022-09-26T09:08:08.052Z,11.10
2022-09-26T09:11:26.458Z,11.09
2022-09-26T09:14:27.447Z,11.14
2022-09-26T09:18:14.016Z,11.19
2022-09-26T09:21:12.641Z,11.22
2022-09-26T09:24:46.263Z,11.17
2022-09-26T09:27:55.278Z,11.29
2022-09-26T09:30:59.657Z,11.28
2022-09-26T09:34:34.722Z,11.32
2022-09-26T09:37:55.949Z,11.49
2022-09-26T09:41:21.050Z,11.54
2022-09-26T09:44:36.298Z,11.53
2022-09-26T09:47:21.985Z,11.61
2022-09-26T09:50:16.771Z,11.68
2022-09-26T09:53:13.849Z,11.75
2022-09-26T09:56:23.723Z,11.72
2022-09-26T09:59:27.838Z,11.73
2022-09-26T10:02:34.850Z,11.80
2022-09-26T10:05:33.795Z,11.90
2022-09-26T10:08:32.257Z,12.02
2022-09-26T10:11:42.042Z,12.20
2022-09-26T10:14:55.893Z,12.18
2022-09-26T10:18:26.735Z,12.12
2022-09-26T10:21:34.101Z,12.11
2022-09-26T10:24:26.952Z,12.17
2022-09-26T10:27:47.219Z,12.37
2022-09-26T10:30:48.138Z,12.49
2022-09-26T10:33:38.714Z,12.56
2022-09-26T10:36:38.917Z,12.59
2022-09-26T10:39:47.779Z,12.65
2022-09-26T10:42:33.322Z,12.66
2022-09-26T10:45:27.333Z,12.71
2022-09-26T10:48:59.727Z,12.70
2022-09-26T10:52:34.487Z,12.83
2022-09-26T10:55:29.775Z,12.79
2022-09-26T10:58:19.398Z,12.65
2022-09-26T11:01:07.261Z,12.71
2022-09-26T11:04:15.070Z,12.71
2022-09-26T11:07:42.946Z,12.71
2022-09-26T11:10:41.675Z,12.72
2022-09-26T11:14:03.948Z,12.90
2022-09-26T11:16:55.661Z,13.15
2022-09-26T11:19:54.473Z,13.29
2022-09-26T11:22:49.018Z,13.09
2022-09-26T11:25:57.812Z,13.18
2022-09-26T11:28:49.851Z,13.21
2022-09-26T11:31:48.576Z,13.12
2022-09-26T11:35:33.543Z,13.05
2022-09-26T11:38:39.092Z,13.17
2022-09-26T11:41:36.782Z,13.14
2022-09-26T11:44:26.380Z,12.92
2022-09-26T11:47:56.125Z,13.07
2022-09-26T11:50:55.940Z,13.14
2022-09-26T11:54:12.390Z,12.90
2022-09-26T11:57:18.011Z,12.94
2022-09-26T12:00:26.521Z,13.01
2022-09-26T12:03:41.400Z,13.22
2022-09-26T12:06:50.788Z,13.43
2022-09-26T12:09:47.461Z,13.63
2022-09-26T12:12:42.541Z,13.45
2022-09-26T12:15:43.496Z,13.21
2022-09-26T12:18:55.683Z,13.03
2022-09-26T12:22:13.984Z,12.77
2022-09-26T12:25:20.344Z,12.94
2022-09-26T12:28:11.914Z,13.16
2022-09-26T12:31:19.676Z,13.32
2022-09-26T12:34:39.469Z,13.53
2022-09-26T12:37:52.927Z,13.65
2022-09-26T12:41:07.734Z,13.72
2022-09-26T12:44:11.075Z,14.25
2022-09-26T12:47:04.954Z,14.41
2022-09-26T12:49:53.395Z,14.27
2022-09-26T12:53:05.473Z,13.79
2022-09-26T12:56:15.487Z,13.61
2022-09-26T12:59:07.516Z,13.36
2022-09-26T13:02:14.666Z,13.03
2022-09-26T13:05:28.201Z,12.63
2022-09-26T13:08:53.331Z,12.53
2022-09-26T13:12:04.093Z,12.75
2022-09-26T13:14:57.392Z,13.08
2022-09-26T13:17:47.960Z,13.06
2022-09-26T13:20:43.421Z,13.30
2022-09-26T13:23:41.164Z,13.60
2022-09-26T13:26:45.166Z,13.85
2022-09-26T13:29:37.463Z,13.89
2022-09-26T13:32:58.825Z,14.00
2022-09-26T13:35:47.327Z,13.48
2022-09-26T13:38:45.928Z,13.37
2022-09-26T13:41:40.827Z,13.16
2022-09-26T13:44:52.782Z,13.13
2022-09-26T13:47:56.751Z,13.27
2022-09-26T13:50:55.510Z,13.29
2022-09-26T13:54:05.139Z,13.43
2022-09-26T13:56:51.040Z,13.47
2022-09-26T13:59:51.583Z,13.51
2022-09-26T14:02:37.134Z,13.77
2022-09-26T14:05:22.918Z,13.93
2022-09-26T14:08:47.447Z,13.85
2022-09-26T14:11:51.581Z,13.82
2022-09-26T14:14:52.629Z,13.64
2022-09-26T14:18:13.088Z,13.57
2022-09-26T14:21:16.223Z,13.48
2022-09-26T14:24:20.339Z,13.29
2022-09-26T14:27:11.623Z,13.17
2022-09-26T14:30:22.693Z,13.06
2022-09-26T14:33:12.999Z,13.06
2022-09-26T14:36:33.632Z,13.14
2022-09-26T14:39:38.005Z,13.14
2022-09-26T14:42:27.319Z,13.03
2022-09-26T14:45:25.589Z,13.09
2022-09-26T14:48:37.493Z,13.25
2022-09-26T14:51:29.464Z,13.26
2022-09-26T14:54:25.416Z,13.24
2022-09-26T14:57:31.818Z,13.23
2022-09-26T15:00:54.777Z,13.14
2022-09-26T15:03:40.500Z,13.07
2022-09-26T15:06:28.664Z,12.86
2022-09-26T15:09:23.740Z,12.81
2022-09-26T15:12:16.892Z,12.80
2022-09-26T15:15:40.203Z,12.81
2022-09-26T15:18:35.684Z,12.60
2022-09-26T15:21:27.644Z,12.41
2022-09-26T15:24:29.720Z,11.99
2022-09-26T15:27:27.605Z,11.88
2022-09-26T15:30:19.185Z,11.78
2022-09-26T15:33:04.889Z,11.81
2022-09-26T15:35:54.776Z,11.98
2022-09-26T15:38:41.927Z,12.18
2022-09-26T15:41:48.972Z,12.28
2022-09-26T15:44:35.063Z,12.37
2022-09-26T15:47:41.715Z,12.51
2022-09-26T15:50:49.755Z,12.62
2022-09-26T15:53:40.053Z,12.42
2022-09-26T15:56:47.492Z,12.44
2022-09-26T15:59:41.440Z,12.44
2022-09-26T16:02:32.832Z,12.40
2022-09-26T16:05:21.075Z,12.33
2022-09-26T16:08:20.790Z,12.31
2022-09-26T16:11:09.489Z,12.26
2022-09-26T16:13:56.721Z,12.27
2022-09-26T16:16:42.449Z,12.30
2022-09-26T16:19:32.343Z,12.21
2022-09-26T16:22:36.223Z,12.15
2022-09-26T16:25:54.986Z,12.18
2022-09-26T16:28:42.839Z,12.15
2022-09-26T16:31:32.829Z,12.19
2022-09-26T16:34:21.552Z,12.19
2022-09-26T16:37:17.930Z,12.19
2022-09-26T16:40:03.912Z,12.15
2022-09-26T16:42:49.429Z,12.21
2022-09-26T16:45:34.986Z,12.08
2022-09-26T16:48:34.893Z,12.06
2022-09-26T16:52:06.723Z,12.06
2022-09-26T16:54:53.969Z,11.94
2022-09-26T16:58:00.700Z,11.97
2022-09-26T17:01:04.921Z,11.92
2022-09-26T17:03:50.572Z,11.90
2022-09-26T17:06:37.213Z,11.86
2022-09-26T17:09:28.203Z,11.80
2022-09-26T17:12:21.995Z,11.77
2022-09-26T17:15:09.471Z,11.74
2022-09-26T17:17:56.980Z,11.75
2022-09-26T17:20:45.521Z,11.73
2022-09-26T17:23:40.399Z,11.72
2022-09-26T17:26:26.782Z,11.71
2022-09-26T17:29:20.863Z,11.68
2022-09-26T17:32:14.812Z,11.68
2022-09-26T17:35:03.960Z,11.65
2022-09-26T17:37:49.599Z,11.62
2022-09-26T17:40:35.117Z,11.58
2022-09-26T17:43:20.457Z,11.54
2022-09-26T17:46:11.462Z,11.47
2022-09-26T17:49:05.233Z,11.41
2022-09-26T17:51:51.066Z,11.39
2022-09-26T17:54:40.872Z,11.35
2022-09-26T17:57:30.170Z,11.28
2022-09-26T18:00:17.981Z,11.27
2022-09-26T18:03:04.977Z,11.21
2022-09-26T18:05:50.952Z,11.16
2022-09-26T18:08:38.850Z,11.10
2022-09-26T18:11:24.540Z,11.07
2022-09-26T18:14:17.194Z,11.04
2022-09-26T18:17:04.355Z,10.99
2022-09-26T18:19:50.766Z,10.97
2022-09-26T18:22:36.393Z,10.98
2022-09-26T18:25:25.116Z,10.94
2022-09-26T18:28:15.360Z,10.91
2022-09-26T18:31:01.307Z,10.85
2022-09-26T18:33:47.157Z,10.86
2022-09-26T18:36:33.429Z,10.90
2022-09-26T18:39:19.053Z,10.91
2022-09-26T18:42:09.343Z,10.91
2022-09-26T18:45:06.258Z,10.94
2022-09-26T18:47:51.734Z,10.87
2022-09-26T18:50:39.869Z,10.80
2022-09-26T18:53:29.556Z,10.71
2022-09-26T18:56:33.447Z,10.62
2022-09-26T18:59:19.031Z,10.54
2022-09-26T19:02:19.400Z,10.48
2022-09-26T19:05:06.107Z,10.48
2022-09-26T19:07:51.754Z,10.51
2022-09-26T19:10:38.094Z,10.53
2022-09-26T19:13:27.471Z,10.58
2022-09-26T19:16:13.370Z,10.63
2022-09-26T19:18:59.047Z,10.66
2022-09-26T19:21:57.072Z,10.68
2022-09-26T19:24:48.663Z,10.70
2022-09-26T19:27:50.026Z,10.72
2022-09-26T19:30:35.600Z,10.73
2022-09-26T19:33:21.413Z,10.70
2022-09-26T19:36:06.959Z,10.70
2022-09-26T19:38:52.540Z,10.64
2022-09-26T19:41:38.115Z,10.56
2022-09-26T19:44:24.520Z,10.43
2022-09-26T19:47:18.602Z,10.31
2022-09-26T19:50:04.622Z,10.18
2022-09-26T19:52:56.644Z,10.06
2022-09-26T19:55:43.155Z,9.99
2022-09-26T19:58:28.808Z,9.90
2022-09-26T20:01:19.218Z,9.83
2022-09-26T20:04:12.957Z,9.72
2022-09-26T20:06:58.631Z,9.63
2022-09-26T20:09:44.670Z,9.60
2022-09-26T20:12:30.218Z,9.53
2022-09-26T20:15:17.863Z,9.43
2022-09-26T20:18:03.589Z,9.40
2022-09-26T20:20:53.985Z,9.34
2022-09-26T20:23:41.821Z,9.32
2022-09-26T20:26:41.609Z,9.32
2022-09-26T20:29:52.114Z,9.37
2022-09-26T20:32:41.515Z,9.42
2022-09-26T20:35:35.460Z,9.48
2022-09-26T20:38:26.612Z,9.51
2022-09-26T20:41:34.405Z,9.50
2022-09-26T20:44:27.415Z,9.52
2022-09-26T20:47:19.675Z,9.51
2022-09-26T20:50:05.376Z,9.47
2022-09-26T20:52:50.879Z,9.48
2022-09-26T20:55:37.897Z,9.49
2022-09-26T20:58:26.606Z,9.61
2022-09-26T21:01:18.368Z,9.62
2022-09-26T21:04:05.435Z,9.61
2022-09-26T21:06:50.778Z,9.60
2022-09-26T21:09:36.538Z,9.54
2022-09-26T21:12:21.868Z,9.50
2022-09-26T21:15:11.509Z,9.45
2022-09-26T21:17:58.057Z,9.44
2022-09-26T21:20:45.449Z,9.45
2022-09-26T21:23:31.545Z,9.44
2022-09-26T21:26:22.872Z,9.41
2022-09-26T21:29:14.754Z,9.39
2022-09-26T21:32:04.468Z,9.39
2022-09-26T21:35:02.506Z,9.32
2022-09-26T21:37:51.795Z,9.28
2022-09-26T21:40:40.195Z,9.25
2022-09-26T21:43:29.567Z,9.23
2022-09-26T21:46:15.521Z,9.26
2022-09-26T21:49:01.267Z,9.27
2022-09-26T21:51:51.561Z,9.32
2022-09-26T21:54:43.065Z,9.37
2022-09-26T21:57:38.713Z,9.42
2022-09-26T22:00:24.068Z,9.44
2022-09-26T22:03:09.475Z,9.48
2022-09-26T22:05:55.093Z,9.49
2022-09-26T22:08:41.044Z,9.54
2022-09-26T22:11:26.843Z,9.57
2022-09-26T22:14:12.681Z,9.57
2022-09-26T22:17:00.956Z,9.59
2022-09-26T22:19:47.023Z,9.60
2022-09-26T22:22:32.435Z,9.60
2022-09-26T22:25:18.187Z,9.60
2022-09-26T22:28:03.616Z,9.60
2022-09-26T22:30:48.979Z,9.61
2022-09-26T22:33:34.868Z,9.60
2022-09-26T22:36:20.307Z,9.62
2022-09-26T22:39:06.269Z,9.62
2022-09-26T22:41:52.354Z,9.61
2022-09-26T22:44:38.035Z,9.59
2022-09-26T22:47:23.669Z,9.59
2022-09-26T22:50:09.377Z,9.60
2022-09-26T22:52:54.958Z,9.58
2022-09-26T22:55:40.405Z,9.58
2022-09-26T22:58:26.435Z,9.57
2022-09-26T23:01:15.333Z,9.58
2022-09-26T23:04:01.083Z,9.54
2022-09-26T23:06:46.819Z,9.51
2022-09-26T23:09:32.616Z,9.44
2022-09-26T23:12:19.311Z,9.38
2022-09-26T23:15:05.174Z,9.34
2022-09-26T23:17:50.812Z,9.29
2022-09-26T23:20:39.337Z,9.25
2022-09-26T23:23:24.937Z,9.18
2022-09-26T23:26:23.297Z,9.14
2022-09-26T23:29:09.285Z,9.08
2022-09-26T23:31:54.989Z,9.04
2022-09-26T23:34:40.426Z,9.03
2022-09-26T23:37:25.811Z,9.01
2022-09-26T23:40:11.241Z,9.02
2022-09-26T23:42:56.607Z,9.06
2022-09-26T23:45:42.034Z,9.11
2022-09-26T23:48:27.729Z,9.17
2022-09-26T23:51:13.354Z,9.21
2022-09-26T23:53:58.977Z,9.25
2022-09-26T23:56:44.161Z,9.31
2022-09-26T23:59:29.547Z,9.35
